Forestville, Canada
Current Conditions -  °F | °C
As of 9:00 AM on Saturday 25 Oct 2014 (Local Time) from CYYY Reporting Station
Overcast Overcast  
Wind Chill: 41°   Ceiling: 6000
Heat Index: 41°   Visibility: 30mi
Dew Point: 34°   Wind: 3mph
Humidity: 76%   Direction: 240°WSW
Pressure: 29.67"   Gusts: NA
Location:  48.73°N, 69.07°W
Report Text: CYYY 251300Z 24003KT 30SM OVC060 05/01 A2967 RMK SC8 SLP049
Loading
Personal Weather Stations






























Interactive Weather Map New forecast layout! Learn more

10-Day Weather Forecast

Advertisements
Track Severe Weather on mobile